createdAt,value
2019-01-19T00:00:16.739Z,62.72
2019-01-19T00:03:17.154Z,62.72
2019-01-19T00:06:34.254Z,62.76
2019-01-19T00:09:17.701Z,62.06
2019-01-19T00:12:35.429Z,62.63
2019-01-19T00:15:18.320Z,62.20
2019-01-19T00:18:39.347Z,62.20
2019-01-19T00:21:36.921Z,63.00
2019-01-19T00:24:57.697Z,63.00
2019-01-19T00:27:47.193Z,63.61
2019-01-19T00:30:36.261Z,62.70
2019-01-19T00:33:55.731Z,63.12
2019-01-19T00:36:43.879Z,62.96
2019-01-19T00:39:51.880Z,62.79
2019-01-19T00:42:56.616Z,62.57
2019-01-19T00:46:12.101Z,62.14
2019-01-19T00:48:58.789Z,62.64
2019-01-19T00:52:13.662Z,61.56
2019-01-19T00:55:11.937Z,61.56
2019-01-19T00:58:26.394Z,60.60
2019-01-19T01:01:32.855Z,60.83
2019-01-19T01:04:26.632Z,61.73
2019-01-19T01:07:52.656Z,61.73
2019-01-19T01:10:32.815Z,62.44
2019-01-19T01:13:35.286Z,64.01
2019-01-19T01:16:48.206Z,64.01
2019-01-19T01:20:18.208Z,64.79
2019-01-19T01:23:12.701Z,64.34
2019-01-19T01:26:17.754Z,64.34
2019-01-19T01:29:16.222Z,62.98
2019-01-19T01:32:13.698Z,63.27
2019-01-19T01:35:21.378Z,63.27
2019-01-19T01:38:05.379Z,62.53
2019-01-19T01:41:09.359Z,62.53
2019-01-19T01:44:22.371Z,62.65
2019-01-19T01:47:42.343Z,62.65
2019-01-19T01:50:59.669Z,63.43
2019-01-19T01:54:10.334Z,62.88
2019-01-19T01:56:41.690Z,63.31
2019-01-19T01:59:36.285Z,63.31
2019-01-19T02:02:45.107Z,62.63
2019-01-19T02:06:00.884Z,62.32
2019-01-19T02:09:16.875Z,61.81
2019-01-19T02:12:39.926Z,62.53
2019-01-19T02:15:26.024Z,64.17
2019-01-19T02:18:22.052Z,65.23
2019-01-19T02:21:26.892Z,65.23
2019-01-19T02:24:38.669Z,65.12
2019-01-19T02:27:44.019Z,65.12
2019-01-19T02:30:59.178Z,65.07
2019-01-19T02:34:32.472Z,64.96
2019-01-19T02:37:50.830Z,64.96
2019-01-19T02:40:39.864Z,65.91
2019-01-19T02:43:36.710Z,66.49
2019-01-19T02:46:55.974Z,66.55
2019-01-19T02:50:04.281Z,65.25
2019-01-19T02:53:28.712Z,65.25
2019-01-19T02:56:43.504Z,65.26
2019-01-19T02:59:34.657Z,65.32
2019-01-19T03:02:32.598Z,64.80
2019-01-19T03:05:25.783Z,64.80
2019-01-19T03:08:53.425Z,64.51
2019-01-19T03:11:46.102Z,64.17
2019-01-19T03:14:41.506Z,63.16
2019-01-19T03:18:14.694Z,64.23
2019-01-19T03:21:31.799Z,63.38
2019-01-19T03:24:44.500Z,62.77
2019-01-19T03:27:52.291Z,62.77
2019-01-19T03:30:41.263Z,64.03
2019-01-19T03:33:58.391Z,63.83
2019-01-19T03:37:19.178Z,64.84
2019-01-19T03:40:14.805Z,64.84
2019-01-19T03:43:12.828Z,65.59
2019-01-19T03:46:10.279Z,66.12
2019-01-19T03:49:21.401Z,66.17
2019-01-19T03:52:21.126Z,66.26
2019-01-19T03:55:38.165Z,66.26
2019-01-19T03:58:43.571Z,65.69
2019-01-19T04:01:55.333Z,65.46
2019-01-19T04:04:36.823Z,64.62
2019-01-19T04:07:39.245Z,64.62
2019-01-19T04:10:32.495Z,64.38
2019-01-19T04:13:19.717Z,63.73
2019-01-19T04:16:29.280Z,63.67
2019-01-19T04:19:26.828Z,63.44
2019-01-19T04:22:07.051Z,63.28
2019-01-19T04:25:11.531Z,62.70
2019-01-19T04:27:42.526Z,62.34
2019-01-19T04:30:14.124Z,62.34
2019-01-19T04:32:45.475Z,62.45
2019-01-19T04:35:16.660Z,62.68
2019-01-19T04:37:47.788Z,62.96
2019-01-19T04:40:19.126Z,63.50
2019-01-19T04:42:51.335Z,63.58
2019-01-19T04:45:22.686Z,63.67
2019-01-19T04:47:53.991Z,63.67
2019-01-19T04:50:25.314Z,64.37
2019-01-19T04:52:56.669Z,64.85
2019-01-19T04:55:27.999Z,64.90
2019-01-19T04:57:59.107Z,64.28
2019-01-19T05:00:30.470Z,64.28
2019-01-19T05:03:01.682Z,64.97
2019-01-19T05:05:32.884Z,64.97
2019-01-19T05:08:04.290Z,65.23
2019-01-19T05:10:35.843Z,65.03
2019-01-19T05:13:07.134Z,65.24
2019-01-19T05:15:38.499Z,65.24
2019-01-19T05:18:11.589Z,65.28
2019-01-19T05:20:42.873Z,64.82
2019-01-19T05:23:13.927Z,65.38
2019-01-19T05:25:46.342Z,64.67
2019-01-19T05:28:17.667Z,63.72
2019-01-19T05:30:48.936Z,63.54
2019-01-19T05:33:20.296Z,63.54
2019-01-19T05:35:51.488Z,64.50
2019-01-19T05:38:22.618Z,64.45
2019-01-19T05:40:53.819Z,64.43
2019-01-19T05:43:25.145Z,64.25
2019-01-19T05:45:56.573Z,64.30
2019-01-19T05:48:27.735Z,65.07
2019-01-19T05:50:59.178Z,65.08
2019-01-19T05:53:30.498Z,64.95
2019-01-19T05:56:01.687Z,64.95
2019-01-19T05:58:33.035Z,65.18
2019-01-19T06:01:04.403Z,65.18
2019-01-19T06:03:35.539Z,65.37
2019-01-19T06:06:06.894Z,65.03
2019-01-19T06:08:38.226Z,64.59
2019-01-19T06:11:09.597Z,64.59
2019-01-19T06:13:40.775Z,64.08
2019-01-19T06:16:12.289Z,64.45
2019-01-19T06:18:44.166Z,64.65
2019-01-19T06:21:16.936Z,63.72
2019-01-19T06:23:48.278Z,64.06
2019-01-19T06:26:19.615Z,64.06
2019-01-19T06:28:50.704Z,63.13
2019-01-19T06:31:22.040Z,63.28
2019-01-19T06:33:53.752Z,62.95
2019-01-19T06:36:25.277Z,62.97
2019-01-19T06:38:56.676Z,62.97
2019-01-19T06:41:28.208Z,63.55
2019-01-19T06:43:59.530Z,62.70
2019-01-19T06:46:30.928Z,62.18
2019-01-19T06:49:02.210Z,61.38
2019-01-19T06:51:33.530Z,61.57
2019-01-19T06:54:05.395Z,61.79
2019-01-19T06:56:36.731Z,62.03
2019-01-19T06:59:07.927Z,61.02
2019-01-19T07:01:39.332Z,60.86
2019-01-19T07:04:10.674Z,60.86
2019-01-19T07:06:41.946Z,60.84
2019-01-19T07:09:13.156Z,60.65
2019-01-19T07:11:44.964Z,60.55
2019-01-19T07:14:16.212Z,60.13
2019-01-19T07:16:47.418Z,60.64
2019-01-19T07:19:18.812Z,60.71
2019-01-19T07:21:50.139Z,60.48
2019-01-19T07:24:21.460Z,60.12
2019-01-19T07:26:52.799Z,60.08
2019-01-19T07:29:24.096Z,59.45
2019-01-19T07:31:55.290Z,59.18
2019-01-19T07:34:26.733Z,59.41
2019-01-19T07:36:58.016Z,59.73
2019-01-19T07:39:29.294Z,59.91
2019-01-19T07:42:00.713Z,60.05
2019-01-19T07:44:31.914Z,59.24
2019-01-19T07:47:05.389Z,59.67
2019-01-19T07:49:36.620Z,59.72
2019-01-19T07:52:08.135Z,58.60
2019-01-19T07:54:39.416Z,58.08
2019-01-19T07:57:10.853Z,58.58
2019-01-19T07:59:42.070Z,58.44
2019-01-19T08:02:13.428Z,57.91
2019-01-19T08:04:44.779Z,57.53
2019-01-19T08:07:17.367Z,57.20
2019-01-19T08:09:49.067Z,57.05
2019-01-19T08:12:20.290Z,57.55
2019-01-19T08:14:51.676Z,57.75
2019-01-19T08:17:22.905Z,58.27
2019-01-19T08:19:54.349Z,58.94
2019-01-19T08:22:25.693Z,59.26
2019-01-19T08:24:56.783Z,59.45
2019-01-19T08:27:28.146Z,59.07
2019-01-19T08:29:59.469Z,59.01
2019-01-19T08:32:30.670Z,58.28
2019-01-19T08:35:01.933Z,58.01
2019-01-19T08:37:33.022Z,57.66
2019-01-19T08:40:04.841Z,57.66
2019-01-19T08:42:36.586Z,57.11
2019-01-19T08:45:08.384Z,57.49
2019-01-19T08:47:39.564Z,56.33
2019-01-19T08:50:10.899Z,55.52
2019-01-19T08:52:42.278Z,55.52
2019-01-19T08:55:13.653Z,55.52
2019-01-19T08:57:44.910Z,54.90
2019-01-19T09:00:16.785Z,54.90
2019-01-19T09:02:48.185Z,54.96
2019-01-19T09:05:19.515Z,54.77
2019-01-19T09:07:50.739Z,54.49
2019-01-19T09:10:21.993Z,53.58
2019-01-19T09:12:54.598Z,52.62
2019-01-19T09:15:25.999Z,51.64
2019-01-19T09:17:57.308Z,50.30
2019-01-19T09:20:28.563Z,49.00
2019-01-19T09:23:04.496Z,47.03
2019-01-19T09:25:35.754Z,46.32
2019-01-19T09:28:06.868Z,45.59
2019-01-19T09:30:38.146Z,44.27
2019-01-19T09:33:09.599Z,43.92
2019-01-19T09:35:40.814Z,44.78
2019-01-19T09:38:12.410Z,45.64
2019-01-19T09:40:43.532Z,45.64
2019-01-19T09:43:15.171Z,45.23
2019-01-19T09:45:46.431Z,45.33
2019-01-19T09:48:17.775Z,45.18
2019-01-19T09:50:49.091Z,43.89
2019-01-19T09:53:20.445Z,42.98
2019-01-19T09:55:51.711Z,42.44
2019-01-19T09:58:23.065Z,42.11
2019-01-19T10:00:55.166Z,41.86
2019-01-19T10:03:26.466Z,40.68
2019-01-19T10:05:57.825Z,40.52
2019-01-19T10:08:29.276Z,39.59
2019-01-19T10:11:00.659Z,38.00
2019-01-19T10:13:31.926Z,37.62
2019-01-19T10:16:03.304Z,36.91
2019-01-19T10:18:34.867Z,35.47
2019-01-19T10:21:06.125Z,35.14
2019-01-19T10:23:37.560Z,36.13
2019-01-19T10:26:08.876Z,37.25
2019-01-19T10:28:41.092Z,39.22
2019-01-19T10:31:12.561Z,40.64
2019-01-19T10:33:43.761Z,42.11
2019-01-19T10:36:15.054Z,43.67
2019-01-19T10:38:46.352Z,44.68
2019-01-19T10:41:17.623Z,45.07
2019-01-19T10:43:49.349Z,46.12
2019-01-19T10:46:20.456Z,46.93
2019-01-19T10:48:51.753Z,46.32
2019-01-19T10:51:22.936Z,46.38
2019-01-19T10:53:54.246Z,47.12
2019-01-19T10:56:25.665Z,48.02
2019-01-19T10:58:56.914Z,49.12
2019-01-19T11:01:28.389Z,48.51
2019-01-19T11:03:59.807Z,45.46
2019-01-19T11:06:31.033Z,45.42
2019-01-19T11:09:02.430Z,44.42
2019-01-19T11:11:36.566Z,45.09
2019-01-19T11:14:07.859Z,45.86
2019-01-19T11:16:39.144Z,46.52
2019-01-19T11:19:10.539Z,45.65
2019-01-19T11:21:41.743Z,46.10
2019-01-19T11:24:13.007Z,45.68
2019-01-19T11:26:44.398Z,45.74
2019-01-19T11:29:16.766Z,46.32
2019-01-19T11:31:48.089Z,45.34
2019-01-19T11:34:20.516Z,45.45
2019-01-19T11:36:51.795Z,45.40
2019-01-19T11:39:22.995Z,46.36
2019-01-19T11:41:54.241Z,46.19
2019-01-19T11:44:25.540Z,46.58
2019-01-19T11:46:56.890Z,45.91
2019-01-19T11:49:27.975Z,45.91
2019-01-19T11:51:59.164Z,46.04
2019-01-19T11:54:30.525Z,45.09
2019-01-19T11:57:01.733Z,45.28
2019-01-19T11:59:33.041Z,45.34
2019-01-19T12:02:04.442Z,45.76
2019-01-19T12:04:35.859Z,46.74
2019-01-19T12:07:07.084Z,46.66
2019-01-19T12:09:38.395Z,46.90
2019-01-19T12:12:09.588Z,47.08
2019-01-19T12:14:40.823Z,47.06
2019-01-19T12:17:12.131Z,46.83
2019-01-19T12:19:43.443Z,55.33
2019-01-19T12:22:14.596Z,51.81
2019-01-19T12:24:45.951Z,49.16
2019-01-19T12:27:17.296Z,49.34
2019-01-19T12:29:48.550Z,49.66
2019-01-19T12:32:19.869Z,50.37
2019-01-19T12:34:51.099Z,50.27
2019-01-19T12:37:22.526Z,50.98
2019-01-19T12:39:53.841Z,51.09
2019-01-19T12:42:25.030Z,51.75
2019-01-19T12:44:56.236Z,51.69
2019-01-19T12:47:29.049Z,51.83
2019-01-19T12:50:00.459Z,51.77
2019-01-19T12:52:31.737Z,51.92
2019-01-19T12:55:03.118Z,51.01
2019-01-19T12:57:34.227Z,50.32
2019-01-19T13:00:06.561Z,49.34
2019-01-19T13:02:37.772Z,49.10
2019-01-19T13:05:13.921Z,48.94
2019-01-19T13:07:45.095Z,48.69
2019-01-19T13:10:23.115Z,49.53
2019-01-19T13:13:18.568Z,49.27
2019-01-19T13:16:25.361Z,49.48
2019-01-19T13:19:36.440Z,49.45
2019-01-19T13:22:47.931Z,49.98
2019-01-19T13:26:06.453Z,49.76
2019-01-19T13:29:36.480Z,50.25
2019-01-19T13:32:56.627Z,49.56
2019-01-19T13:36:04.281Z,49.35
2019-01-19T13:39:23.311Z,49.35
2019-01-19T13:42:49.482Z,49.48
2019-01-19T13:46:16.343Z,50.45
2019-01-19T13:49:31.023Z,50.67
2019-01-19T13:52:20.588Z,51.16
2019-01-19T13:55:25.336Z,50.74
2019-01-19T13:58:05.145Z,50.04
2019-01-19T14:01:07.139Z,49.73
2019-01-19T14:04:03.060Z,50.20
2019-01-19T14:06:42.205Z,50.11
2019-01-19T14:09:46.253Z,50.08
2019-01-19T14:13:00.366Z,50.13
2019-01-19T14:15:55.932Z,50.32
2019-01-19T14:19:12.801Z,51.12
2019-01-19T14:22:09.939Z,50.89
2019-01-19T14:25:17.750Z,50.48
2019-01-19T14:28:29.636Z,51.22
2019-01-19T14:31:46.659Z,50.89
2019-01-19T14:34:28.037Z,51.62
2019-01-19T14:37:37.061Z,52.61
2019-01-19T14:41:07.088Z,52.93
2019-01-19T14:44:06.871Z,52.87
2019-01-19T14:46:56.980Z,53.47
2019-01-19T14:50:03.950Z,53.68
2019-01-19T14:53:12.479Z,53.97
2019-01-19T14:56:20.321Z,54.38
2019-01-19T14:59:38.205Z,54.88
2019-01-19T15:03:14.454Z,55.23
2019-01-19T15:06:22.045Z,55.38
2019-01-19T15:09:13.350Z,55.90
2019-01-19T15:12:08.748Z,56.28
2019-01-19T15:15:35.528Z,56.44
2019-01-19T15:18:31.559Z,56.44
2019-01-19T15:21:13.239Z,57.90
2019-01-19T15:24:49.543Z,57.90
2019-01-19T15:27:58.185Z,58.13
2019-01-19T15:31:01.771Z,59.14
2019-01-19T15:33:57.736Z,59.14
2019-01-19T15:37:09.126Z,59.49
2019-01-19T15:40:21.529Z,59.76
2019-01-19T15:43:45.449Z,60.20
2019-01-19T15:46:53.194Z,60.20
2019-01-19T15:49:56.803Z,60.33
2019-01-19T15:53:07.228Z,60.56
2019-01-19T15:56:28.667Z,60.61
2019-01-19T15:59:38.927Z,60.61
2019-01-19T16:02:53.224Z,60.68
2019-01-19T16:06:11.727Z,60.68
2019-01-19T16:09:36.886Z,60.77
2019-01-19T16:12:17.245Z,61.12
2019-01-19T16:15:09.920Z,61.31
2019-01-19T16:18:36.152Z,60.91
2019-01-19T16:21:44.355Z,61.19
2019-01-19T16:24:44.874Z,61.00
2019-01-19T16:27:54.015Z,61.44
2019-01-19T16:30:53.817Z,61.44
2019-01-19T16:34:15.144Z,61.93
2019-01-19T16:37:01.959Z,61.86
2019-01-19T16:40:18.868Z,61.95
2019-01-19T16:43:15.206Z,61.43
2019-01-19T16:46:31.711Z,61.65
2019-01-19T16:49:35.221Z,56.51
2019-01-19T16:52:37.377Z,60.11
2019-01-19T16:55:30.337Z,56.98
2019-01-19T16:58:57.677Z,58.84
2019-01-19T17:02:09.327Z,59.11
2019-01-19T17:05:10.305Z,60.55
2019-01-19T17:08:22.960Z,60.30
2019-01-19T17:11:37.172Z,60.53
2019-01-19T17:15:01.524Z,57.15
2019-01-19T17:18:12.648Z,53.96
2019-01-19T17:21:19.365Z,53.77
2019-01-19T17:24:30.754Z,53.60
2019-01-19T17:27:37.025Z,53.29
2019-01-19T17:30:39.744Z,53.32
2019-01-19T17:33:48.132Z,52.53
2019-01-19T17:36:53.669Z,53.50
2019-01-19T17:40:01.702Z,53.79
2019-01-19T17:43:17.932Z,54.15
2019-01-19T17:46:00.235Z,54.55
2019-01-19T17:48:53.246Z,54.94
2019-01-19T17:52:11.160Z,55.27
2019-01-19T17:55:14.715Z,55.65
2019-01-19T17:58:23.950Z,55.79
2019-01-19T18:01:30.650Z,55.78
2019-01-19T18:04:20.165Z,56.09
2019-01-19T18:07:04.606Z,56.92
2019-01-19T18:10:06.113Z,57.10
2019-01-19T18:13:33.605Z,57.49
2019-01-19T18:16:41.617Z,57.67
2019-01-19T18:19:46.136Z,58.48
2019-01-19T18:23:09.911Z,59.14
2019-01-19T18:26:04.131Z,59.94
2019-01-19T18:29:17.183Z,60.39
2019-01-19T18:32:08.793Z,60.26
2019-01-19T18:35:14.554Z,60.59
2019-01-19T18:38:28.176Z,60.36
2019-01-19T18:41:30.286Z,60.86
2019-01-19T18:44:39.396Z,61.24
2019-01-19T18:47:47.593Z,61.60
2019-01-19T18:50:43.989Z,61.87
2019-01-19T18:53:59.597Z,62.48
2019-01-19T18:57:12.358Z,62.43
2019-01-19T18:59:53.179Z,62.69
2019-01-19T19:02:51.537Z,63.16
2019-01-19T19:06:03.826Z,63.29
2019-01-19T19:09:08.713Z,63.45
2019-01-19T19:12:15.641Z,63.30
2019-01-19T19:15:10.622Z,63.55
2019-01-19T19:18:18.056Z,63.44
2019-01-19T19:21:19.982Z,63.29
2019-01-19T19:24:49.510Z,62.97
2019-01-19T19:27:31.750Z,62.92
2019-01-19T19:30:48.759Z,62.80
2019-01-19T19:34:08.941Z,62.99
2019-01-19T19:37:27.443Z,62.82
2019-01-19T19:40:30.944Z,62.31
2019-01-19T19:43:28.710Z,62.44
2019-01-19T19:46:10.743Z,61.97
2019-01-19T19:49:08.432Z,62.03
2019-01-19T19:51:56.458Z,62.28
2019-01-19T19:54:28.500Z,62.11
2019-01-19T19:56:59.839Z,61.89
2019-01-19T19:59:31.216Z,62.04
2019-01-19T20:02:02.542Z,61.93
2019-01-19T20:04:33.763Z,62.03
2019-01-19T20:07:05.514Z,62.25
2019-01-19T20:09:36.801Z,62.67
2019-01-19T20:12:09.178Z,62.33
2019-01-19T20:14:40.621Z,62.80
2019-01-19T20:17:11.964Z,62.81
2019-01-19T20:19:43.285Z,63.16
2019-01-19T20:22:14.675Z,63.35
2019-01-19T20:24:45.956Z,63.75
2019-01-19T20:27:17.339Z,63.77
2019-01-19T20:29:48.629Z,64.59
2019-01-19T20:32:19.828Z,64.68
2019-01-19T20:34:50.939Z,64.66
2019-01-19T20:37:22.312Z,64.61
2019-01-19T20:39:53.436Z,64.39
2019-01-19T20:42:24.575Z,64.57
2019-01-19T20:44:55.791Z,65.30
2019-01-19T20:47:27.193Z,65.04
2019-01-19T20:49:58.522Z,65.30
2019-01-19T20:52:29.733Z,65.75
2019-01-19T20:55:00.945Z,65.64
2019-01-19T20:57:32.123Z,65.68
2019-01-19T21:00:08.676Z,65.95
2019-01-19T21:02:40.077Z,66.15
2019-01-19T21:05:11.371Z,66.42
2019-01-19T21:07:42.660Z,66.29
2019-01-19T21:10:14.290Z,66.21
2019-01-19T21:12:46.555Z,66.01
2019-01-19T21:15:17.748Z,66.09
2019-01-19T21:17:55.627Z,65.96
2019-01-19T21:20:22.041Z,65.88
2019-01-19T21:22:53.365Z,66.00
2019-01-19T21:25:24.784Z,65.65
2019-01-19T21:27:56.090Z,65.43
2019-01-19T21:30:27.483Z,65.84
2019-01-19T21:32:58.928Z,65.93
2019-01-19T21:35:30.204Z,65.76
2019-01-19T21:38:02.763Z,65.58
2019-01-19T21:40:38.957Z,65.60
2019-01-19T21:43:07.036Z,65.46
2019-01-19T21:45:38.349Z,65.60
2019-01-19T21:48:09.552Z,65.99
2019-01-19T21:50:40.736Z,66.42
2019-01-19T21:53:11.974Z,66.29
2019-01-19T21:55:43.358Z,66.41
2019-01-19T21:58:14.869Z,67.28
2019-01-19T22:00:46.100Z,67.43
2019-01-19T22:03:17.552Z,67.65
2019-01-19T22:05:49.715Z,68.28
2019-01-19T22:08:21.163Z,68.59
2019-01-19T22:10:52.485Z,68.87
2019-01-19T22:13:23.625Z,69.16
2019-01-19T22:15:54.894Z,69.90
2019-01-19T22:18:26.256Z,70.43
2019-01-19T22:20:57.673Z,70.97
2019-01-19T22:23:29.002Z,71.13
2019-01-19T22:26:00.238Z,71.16
2019-01-19T22:28:31.571Z,71.34
2019-01-19T22:31:02.789Z,71.34
2019-01-19T22:33:34.306Z,71.20
2019-01-19T22:36:05.594Z,71.63
2019-01-19T22:38:36.759Z,71.33
2019-01-19T22:41:08.034Z,71.65
2019-01-19T22:43:39.639Z,72.11
2019-01-19T22:46:11.070Z,72.37
2019-01-19T22:48:42.511Z,72.22
2019-01-19T22:51:13.839Z,72.64
2019-01-19T22:53:45.104Z,72.72
2019-01-19T22:56:16.358Z,72.75
2019-01-19T22:58:47.565Z,72.51
2019-01-19T23:01:35.032Z,72.64
2019-01-19T23:04:06.401Z,72.46
2019-01-19T23:06:37.532Z,72.99
2019-01-19T23:09:13.663Z,73.33
2019-01-19T23:11:44.959Z,73.36
2019-01-19T23:14:16.356Z,73.65
2019-01-19T23:16:47.598Z,74.08
2019-01-19T23:19:18.835Z,74.08
2019-01-19T23:21:50.161Z,73.25
2019-01-19T23:24:21.529Z,73.02
2019-01-19T23:26:54.346Z,73.43
2019-01-19T23:29:25.483Z,73.51
2019-01-19T23:31:56.660Z,73.44
2019-01-19T23:34:28.032Z,73.43
2019-01-19T23:36:59.430Z,73.41
2019-01-19T23:39:30.580Z,73.58
2019-01-19T23:42:01.955Z,73.52
2019-01-19T23:44:33.311Z,73.70
2019-01-19T23:47:04.778Z,73.70
2019-01-19T23:49:36.219Z,73.69
2019-01-19T23:52:07.556Z,73.81
2019-01-19T23:54:38.818Z,74.49
2019-01-19T23:57:09.939Z,74.70
2019-01-19T23:59:41.182Z,74.49
